createdAt,value
2023-06-19T00:00:03.968Z,21332.31
2023-06-19T00:02:33.780Z,21297.75
2023-06-19T00:05:02.369Z,21314.00
2023-06-19T00:07:30.847Z,21305.88
2023-06-19T00:09:59.579Z,21253.00
2023-06-19T00:12:28.036Z,21291.66
2023-06-19T00:14:56.502Z,21307.91
2023-06-19T00:17:27.129Z,21334.34
2023-06-19T00:19:57.013Z,21309.94
2023-06-19T00:22:27.028Z,21285.53
2023-06-19T00:24:55.514Z,21309.94
2023-06-19T00:27:25.258Z,21320.09
2023-06-19T00:29:53.797Z,21328.25
2023-06-19T00:32:22.431Z,21336.38
2023-06-19T00:38:40.979Z,21354.66
2023-06-19T00:41:09.881Z,21407.53
2023-06-19T00:43:38.409Z,21415.66
2023-06-19T00:46:07.205Z,21417.69
2023-06-19T00:48:36.296Z,21436.00
2023-06-19T00:51:05.118Z,21391.28
2023-06-19T00:53:35.478Z,21405.50
2023-06-19T00:56:07.459Z,21415.66
2023-06-19T00:58:36.308Z,21429.91
2023-06-19T01:01:09.528Z,21415.66
2023-06-19T01:03:39.127Z,21438.03
2023-06-19T01:06:12.749Z,21458.38
2023-06-19T01:08:51.496Z,21395.34
2023-06-19T01:11:27.914Z,21454.28
2023-06-19T01:14:01.085Z,21397.38
2023-06-19T01:16:31.928Z,21425.84
2023-06-19T01:19:01.361Z,21431.94
2023-06-19T01:21:30.057Z,21393.31
2023-06-19T01:23:59.918Z,21399.41
2023-06-19T01:26:28.835Z,21391.28
2023-06-19T01:28:58.805Z,21381.09
2023-06-19T01:31:32.178Z,21401.44
2023-06-19T01:34:03.270Z,21444.13
2023-06-19T01:36:32.532Z,21427.88
2023-06-19T01:39:02.687Z,21411.59
2023-06-19T01:41:31.747Z,21399.41
2023-06-19T01:44:01.469Z,21407.53
2023-06-19T01:46:29.953Z,21440.06
2023-06-19T01:48:58.484Z,21446.16
2023-06-19T01:51:26.977Z,21407.53
2023-06-19T01:53:55.483Z,21350.59
2023-06-19T01:56:25.425Z,21364.84
2023-06-19T01:58:55.533Z,21346.53
2023-06-19T02:01:24.154Z,21338.41
2023-06-19T02:03:53.072Z,21328.25
2023-06-19T02:06:22.367Z,21311.97
2023-06-19T02:08:51.057Z,21346.53
2023-06-19T02:11:19.606Z,21301.81
2023-06-19T02:13:49.588Z,21293.69
2023-06-19T02:16:18.191Z,21289.59
2023-06-19T02:18:46.718Z,21255.03
2023-06-19T02:21:15.252Z,21232.69
2023-06-19T02:23:43.718Z,21253.00
2023-06-19T02:26:12.278Z,21289.59
2023-06-19T02:28:40.736Z,21240.81
2023-06-19T02:31:10.560Z,21214.38
2023-06-19T02:33:39.054Z,21255.03
2023-06-19T02:36:07.765Z,21269.28
2023-06-19T02:38:36.809Z,21246.91
2023-06-19T02:41:05.343Z,21277.41
2023-06-19T02:43:33.792Z,21253.00
2023-06-19T02:46:02.342Z,21224.56
2023-06-19T02:48:32.343Z,21261.16
2023-06-19T02:51:00.840Z,21242.84
2023-06-19T02:53:29.335Z,21263.19
2023-06-19T02:55:57.867Z,21259.13
2023-06-19T02:58:26.911Z,21255.03
2023-06-19T03:00:55.681Z,21305.88
2023-06-19T03:03:25.024Z,21234.72
2023-06-19T03:05:54.965Z,21224.56
2023-06-19T03:08:23.500Z,21240.81
2023-06-19T03:10:51.977Z,21273.34
2023-06-19T03:13:20.441Z,21228.63
2023-06-19T03:15:49.273Z,21220.47
2023-06-19T03:18:17.755Z,21240.81
2023-06-19T03:20:46.228Z,21255.03
2023-06-19T03:23:16.091Z,21255.03
2023-06-19T03:25:44.701Z,21295.72
2023-06-19T03:28:13.201Z,21240.81
2023-06-19T03:30:41.713Z,21291.66
2023-06-19T03:33:10.207Z,21309.94
2023-06-19T03:35:38.736Z,21299.78
2023-06-19T03:38:07.359Z,21305.88
2023-06-19T03:40:37.185Z,21297.75
2023-06-19T03:43:05.682Z,21322.13
2023-06-19T03:45:34.192Z,21366.88
2023-06-19T03:48:02.731Z,21354.66
2023-06-19T03:50:31.342Z,21358.75
2023-06-19T03:52:59.929Z,21391.28
2023-06-19T03:55:28.440Z,21383.13
2023-06-19T03:57:58.281Z,21393.31
2023-06-19T04:00:26.986Z,21358.75
2023-06-19T04:02:55.698Z,21429.91
2023-06-19T04:05:24.522Z,21407.53
2023-06-19T04:07:53.225Z,21366.88
2023-06-19T04:10:22.002Z,21429.91
2023-06-19T04:12:50.712Z,21454.28
2023-06-19T04:15:20.568Z,21436.00
2023-06-19T04:17:49.073Z,21438.03
2023-06-19T04:20:17.725Z,21407.53
2023-06-19T04:22:46.207Z,21395.34
2023-06-19T04:25:14.766Z,21442.09
2023-06-19T04:27:45.832Z,21450.22
2023-06-19T04:30:15.045Z,21472.59
2023-06-19T04:32:45.080Z,21468.53
2023-06-19T04:35:13.798Z,21472.59
2023-06-19T04:37:42.367Z,21480.72
2023-06-19T04:40:12.020Z,21474.63
2023-06-19T04:42:40.709Z,21497.00
2023-06-19T04:45:10.404Z,21513.25
2023-06-19T04:47:51.771Z,21555.97
2023-06-19T04:50:23.550Z,21619.00
2023-06-19T04:52:53.022Z,21688.13
2023-06-19T04:55:22.222Z,21747.09
2023-06-19T04:57:50.695Z,21822.31
2023-06-19T05:00:21.164Z,21950.44
2023-06-19T05:02:49.997Z,22035.84
2023-06-19T05:05:19.645Z,22084.66
2023-06-19T05:07:51.932Z,22090.75
2023-06-19T05:10:20.666Z,22084.66
2023-06-19T05:12:49.191Z,22001.28
2023-06-19T05:15:17.635Z,21952.47
2023-06-19T05:17:47.490Z,21921.97
2023-06-19T05:20:16.964Z,21858.94
2023-06-19T05:22:45.441Z,21806.06
2023-06-19T05:25:15.323Z,21785.72
2023-06-19T05:27:43.802Z,21745.06
2023-06-19T05:30:13.274Z,21704.38
2023-06-19T05:32:41.800Z,21684.06
2023-06-19T05:35:12.414Z,21708.47
2023-06-19T05:37:44.673Z,21732.84
2023-06-19T05:40:14.868Z,21714.56
2023-06-19T05:42:43.569Z,21730.81
2023-06-19T05:45:12.898Z,21722.69
2023-06-19T05:47:41.460Z,21722.69
2023-06-19T05:50:10.662Z,21745.06
2023-06-19T05:52:42.723Z,21753.19
2023-06-19T05:55:11.504Z,21732.84
2023-06-19T05:57:41.471Z,21694.22
2023-06-19T06:00:13.972Z,21686.09
2023-06-19T06:02:42.574Z,21655.59
2023-06-19T06:05:12.150Z,21673.88
2023-06-19T06:07:41.649Z,21726.75
2023-06-19T06:10:11.295Z,21761.31
2023-06-19T06:12:41.200Z,21736.94
2023-06-19T06:15:10.494Z,21761.31
2023-06-19T06:17:39.040Z,21759.28
2023-06-19T06:20:12.627Z,21745.06
2023-06-19T06:22:41.346Z,21830.47
2023-06-19T06:25:13.125Z,21773.53
2023-06-19T06:27:43.900Z,21747.09
2023-06-19T06:30:14.154Z,21659.66
2023-06-19T06:32:42.802Z,21673.88
2023-06-19T06:35:11.583Z,21639.31
2023-06-19T06:37:40.074Z,21590.53
2023-06-19T06:40:12.050Z,21621.03
2023-06-19T06:42:41.992Z,21564.09
2023-06-19T06:45:11.138Z,21533.59
2023-06-19T06:47:41.044Z,21551.91
2023-06-19T06:50:10.937Z,21543.75
2023-06-19T06:52:39.900Z,21562.06
2023-06-19T06:55:08.959Z,21535.63
2023-06-19T06:57:37.431Z,21499.03
2023-06-19T07:00:10.890Z,21499.03
2023-06-19T07:02:41.649Z,21429.91
2023-06-19T07:05:11.076Z,21425.84
2023-06-19T07:07:39.595Z,21429.91
2023-06-19T07:10:08.972Z,21431.94
2023-06-19T07:12:37.458Z,21403.47
2023-06-19T07:15:08.225Z,21436.00
2023-06-19T07:17:36.753Z,21470.56
2023-06-19T07:20:06.141Z,21505.13
2023-06-19T07:22:34.940Z,21574.25
2023-06-19T07:25:04.863Z,21637.28
2023-06-19T07:27:33.601Z,21716.59
2023-06-19T07:30:02.159Z,21677.97
2023-06-19T07:32:32.038Z,21698.28
2023-06-19T07:35:00.593Z,21730.81
2023-06-19T07:37:29.087Z,21743.03
2023-06-19T07:39:57.632Z,21745.06
2023-06-19T07:42:26.159Z,21767.44
2023-06-19T07:44:54.658Z,21789.78
2023-06-19T07:47:23.244Z,21781.66
2023-06-19T07:49:53.559Z,21802.00
2023-06-19T07:52:22.122Z,21793.84
2023-06-19T07:54:54.781Z,21822.31
2023-06-19T07:57:23.475Z,21881.28
2023-06-19T07:59:52.836Z,21952.47
2023-06-19T08:02:21.360Z,22009.41
2023-06-19T08:04:49.970Z,22046.00
2023-06-19T08:07:20.033Z,22068.38
2023-06-19T08:09:54.387Z,22098.88
2023-06-19T08:12:32.969Z,22111.09
2023-06-19T08:15:01.457Z,22082.63
2023-06-19T08:17:30.003Z,22115.16
2023-06-19T08:19:58.478Z,22131.41
2023-06-19T08:22:28.349Z,22163.94
2023-06-19T08:24:57.880Z,22257.50
2023-06-19T08:27:26.391Z,22359.19
2023-06-19T08:29:55.494Z,22487.31
2023-06-19T08:32:24.168Z,22595.09
2023-06-19T08:34:52.759Z,22713.06
2023-06-19T08:37:21.399Z,22743.56
2023-06-19T08:39:51.378Z,22843.22
2023-06-19T08:42:20.045Z,22857.47
2023-06-19T08:44:48.559Z,22930.69
2023-06-19T08:47:17.585Z,22944.94
2023-06-19T08:49:46.093Z,23089.34
2023-06-19T08:52:14.908Z,23054.75
2023-06-19T08:54:46.285Z,23128.00
2023-06-19T08:57:16.269Z,23174.78
2023-06-19T08:59:51.714Z,23219.53
2023-06-19T09:02:21.378Z,23317.16
2023-06-19T09:04:50.155Z,23329.38
2023-06-19T09:07:18.969Z,23339.53
2023-06-19T09:09:48.639Z,23439.22
2023-06-19T09:12:19.145Z,23447.34
2023-06-19T09:14:48.616Z,23469.72
2023-06-19T09:17:21.985Z,23540.94
2023-06-19T09:19:51.079Z,23567.38
2023-06-19T09:22:20.753Z,23656.88
2023-06-19T09:24:50.444Z,23754.53
2023-06-19T09:27:21.743Z,23726.06
2023-06-19T09:29:52.568Z,23687.41
2023-06-19T09:32:22.183Z,23742.34
2023-06-19T09:34:52.479Z,23807.44
2023-06-19T09:37:25.807Z,23825.75
2023-06-19T09:39:56.297Z,23660.97
2023-06-19T09:42:31.533Z,23650.78
2023-06-19T09:45:05.259Z,23567.38
2023-06-19T09:47:37.597Z,23553.13
2023-06-19T09:50:08.348Z,23575.50
2023-06-19T09:52:37.155Z,23636.53
2023-06-19T09:55:09.397Z,23728.09
2023-06-19T09:57:39.829Z,23726.06
2023-06-19T10:00:13.898Z,23852.19
2023-06-19T10:02:44.042Z,23850.16
2023-06-19T10:05:15.529Z,23868.47
2023-06-19T10:07:46.041Z,23990.53
2023-06-19T10:10:24.933Z,23966.13
2023-06-19T10:12:56.979Z,23955.94
2023-06-19T10:15:27.521Z,24130.94
2023-06-19T10:18:01.668Z,24259.09
2023-06-19T10:20:33.084Z,24377.13
2023-06-19T10:23:04.844Z,24417.81
2023-06-19T10:25:35.484Z,24562.28
2023-06-19T10:28:08.206Z,24550.06
2023-06-19T10:30:36.849Z,24491.06
2023-06-19T10:33:05.607Z,24403.56
2023-06-19T10:35:41.740Z,24462.59
2023-06-19T10:38:10.491Z,24430.03
2023-06-19T10:40:39.545Z,24521.59
2023-06-19T10:43:09.420Z,24580.59
2023-06-19T10:45:37.979Z,24594.84
2023-06-19T10:48:07.195Z,24419.84
2023-06-19T10:50:44.237Z,24307.94
2023-06-19T10:53:12.733Z,24409.69
2023-06-19T10:55:41.226Z,24495.13
2023-06-19T10:58:11.090Z,24474.78
2023-06-19T11:00:39.758Z,24442.22
2023-06-19T11:03:08.455Z,24474.78
2023-06-19T11:05:37.094Z,24377.13
2023-06-19T11:08:05.749Z,24334.41
2023-06-19T11:10:34.236Z,24316.06
2023-06-19T11:13:02.803Z,24346.59
2023-06-19T11:15:33.796Z,24419.84
2023-06-19T11:18:03.744Z,24527.69
2023-06-19T11:20:32.472Z,24635.53
2023-06-19T11:23:02.465Z,24639.63
2023-06-19T11:25:38.610Z,24495.13
2023-06-19T11:28:07.397Z,24444.28
2023-06-19T11:30:37.501Z,24375.09
2023-06-19T11:33:06.134Z,24395.44
2023-06-19T11:35:38.534Z,24348.63
2023-06-19T11:38:07.039Z,24165.50
2023-06-19T11:40:42.847Z,24181.78
2023-06-19T11:43:11.296Z,24084.13
2023-06-19T11:45:50.294Z,24088.19
2023-06-19T11:48:25.220Z,24067.84
2023-06-19T11:50:54.492Z,24065.81
2023-06-19T11:53:23.596Z,24090.22
2023-06-19T11:55:52.342Z,24069.88
2023-06-19T11:58:21.844Z,24051.56
2023-06-19T12:00:52.247Z,24110.59
2023-06-19T12:03:20.926Z,24092.28
2023-06-19T12:05:49.970Z,24104.47
2023-06-19T12:08:18.707Z,24098.38
2023-06-19T12:10:47.165Z,24130.94
2023-06-19T12:13:15.683Z,24014.94
2023-06-19T12:15:44.722Z,23943.75
2023-06-19T12:18:15.032Z,23996.66
2023-06-19T12:20:43.487Z,24002.75
2023-06-19T12:23:11.950Z,23984.44
2023-06-19T12:25:40.492Z,24049.53
2023-06-19T12:28:09.453Z,24063.78
2023-06-19T12:30:38.319Z,24100.41
2023-06-19T12:33:07.276Z,24078.03
2023-06-19T12:35:37.225Z,24098.38
2023-06-19T12:38:07.465Z,24137.03
2023-06-19T12:40:36.252Z,24122.78
2023-06-19T12:43:04.773Z,24100.41
2023-06-19T12:45:33.577Z,24177.72
2023-06-19T12:48:02.143Z,24112.63
2023-06-19T12:50:31.784Z,24171.63
2023-06-19T12:53:02.095Z,24147.19
2023-06-19T12:55:30.553Z,24191.97
2023-06-19T12:57:59.021Z,24157.38
2023-06-19T13:00:27.551Z,24100.41
2023-06-19T13:02:56.024Z,24045.47
2023-06-19T13:05:24.589Z,23986.47
2023-06-19T13:07:53.086Z,23915.25
2023-06-19T13:10:23.327Z,23972.22
2023-06-19T13:12:52.445Z,24019.03
2023-06-19T13:15:20.978Z,24163.47
2023-06-19T13:17:49.533Z,24240.78
2023-06-19T13:20:18.097Z,24275.38
2023-06-19T13:22:46.626Z,24318.13
2023-06-19T13:25:15.098Z,24364.91
2023-06-19T13:27:44.974Z,24371.03
2023-06-19T13:30:14.565Z,24393.41
2023-06-19T13:32:43.111Z,24442.22
2023-06-19T13:35:11.906Z,24303.88
2023-06-19T13:37:41.013Z,24291.66
2023-06-19T13:40:10.527Z,24334.41
2023-06-19T13:42:39.816Z,24348.63
2023-06-19T13:45:10.658Z,24362.88
2023-06-19T13:47:39.388Z,24360.84
2023-06-19T13:50:10.164Z,24423.91
2023-06-19T13:52:38.680Z,24584.66
2023-06-19T13:55:07.837Z,24855.31
2023-06-19T13:57:38.256Z,24889.91
2023-06-19T14:00:12.248Z,24953.00
2023-06-19T14:02:41.888Z,25042.53
2023-06-19T14:05:11.589Z,24963.16
2023-06-19T14:07:41.158Z,24893.97
2023-06-19T14:10:10.666Z,24902.13
2023-06-19T14:12:39.233Z,24834.97
2023-06-19T14:15:11.069Z,24883.81
2023-06-19T14:17:39.747Z,24696.59
2023-06-19T14:20:09.858Z,24751.53
2023-06-19T14:22:40.678Z,24761.72
2023-06-19T14:25:09.890Z,24686.41
2023-06-19T14:27:38.352Z,24582.63
2023-06-19T14:30:10.453Z,24556.19
2023-06-19T14:32:39.654Z,24546.00
2023-06-19T14:35:09.246Z,24546.00
2023-06-19T14:37:37.900Z,24554.16
2023-06-19T14:40:36.694Z,24491.06
2023-06-19T14:43:06.113Z,24482.94
2023-06-19T14:46:02.534Z,24503.28
2023-06-19T14:48:32.209Z,24517.53
2023-06-19T14:51:04.681Z,24491.06
2023-06-19T14:53:33.841Z,24375.09
2023-06-19T14:56:03.438Z,24348.63
2023-06-19T14:58:32.066Z,24287.59
2023-06-19T15:01:01.945Z,24163.47
2023-06-19T15:03:30.559Z,24110.59
2023-06-19T15:05:59.082Z,24059.72
2023-06-19T15:08:27.559Z,24076.00
2023-06-19T15:13:51.969Z,24027.16
2023-06-19T15:16:23.168Z,23992.56
2023-06-19T15:18:51.718Z,23972.22
2023-06-19T15:21:20.511Z,23962.06
2023-06-19T15:23:50.039Z,23921.38
2023-06-19T15:26:18.578Z,23917.28
2023-06-19T15:28:48.412Z,23905.09
2023-06-19T15:31:17.724Z,23917.28
2023-06-19T15:33:47.574Z,23949.84
2023-06-19T15:36:16.088Z,23998.69
2023-06-19T15:38:44.697Z,24035.31
2023-06-19T15:41:13.579Z,23982.41
2023-06-19T15:43:43.159Z,23931.53
2023-06-19T15:46:11.726Z,23917.28
2023-06-19T15:48:40.420Z,23976.31
2023-06-19T15:51:10.886Z,23970.19
2023-06-19T15:53:40.858Z,23947.81
2023-06-19T15:56:09.339Z,23941.72
2023-06-19T15:58:37.888Z,23960.03
2023-06-19T16:01:06.434Z,23833.88
2023-06-19T16:03:35.085Z,23831.84
2023-06-19T16:06:07.930Z,23872.53
2023-06-19T16:08:38.571Z,23870.50
2023-06-19T16:11:07.071Z,23801.34
2023-06-19T16:13:35.602Z,23807.44
2023-06-19T16:16:04.307Z,23756.56
2023-06-19T16:18:32.889Z,23766.75
2023-06-19T16:21:01.414Z,23742.34
2023-06-19T16:23:29.961Z,23705.72
2023-06-19T16:25:59.810Z,23724.03
2023-06-19T16:28:29.442Z,23713.84
2023-06-19T16:30:57.993Z,23717.91
2023-06-19T16:33:26.615Z,23709.78
2023-06-19T16:35:55.651Z,23693.50
2023-06-19T16:38:24.333Z,23618.25
2023-06-19T16:40:52.831Z,23575.50
2023-06-19T16:43:22.749Z,23542.97
2023-06-19T16:45:51.235Z,23498.22
2023-06-19T16:48:19.744Z,23473.81
2023-06-19T16:50:48.274Z,23439.22
2023-06-19T16:53:16.887Z,23368.03
2023-06-19T16:55:45.604Z,23376.16
2023-06-19T16:58:14.100Z,23317.16
2023-06-19T17:00:44.015Z,23323.28
2023-06-19T17:03:14.045Z,23276.47
2023-06-19T17:05:42.611Z,23225.63
2023-06-19T17:08:11.249Z,23199.19
2023-06-19T17:10:39.960Z,23178.84
2023-06-19T17:13:08.523Z,23128.00
2023-06-19T17:15:37.024Z,23115.78
2023-06-19T17:18:07.642Z,23115.78
2023-06-19T17:20:36.343Z,23069.00
2023-06-19T17:23:04.836Z,23064.94
2023-06-19T17:25:33.717Z,23018.16
2023-06-19T17:28:02.227Z,23016.13
2023-06-19T17:30:30.746Z,23020.19
2023-06-19T17:32:59.284Z,23022.22
2023-06-19T17:35:29.177Z,22997.81
2023-06-19T17:37:57.661Z,22981.53
2023-06-19T17:40:26.465Z,22969.34
2023-06-19T17:42:55.171Z,22991.72
2023-06-19T17:45:24.487Z,22965.28
2023-06-19T17:47:52.979Z,22987.63
2023-06-19T17:50:21.740Z,22971.38
2023-06-19T17:52:51.630Z,22975.44
2023-06-19T17:55:20.381Z,22973.41
2023-06-19T17:57:49.131Z,22993.75
2023-06-19T18:00:18.244Z,22987.63
2023-06-19T18:02:49.686Z,22981.53
2023-06-19T18:05:18.338Z,22991.72
2023-06-19T18:07:46.869Z,22971.38
2023-06-19T18:10:19.359Z,22969.34
2023-06-19T18:12:47.898Z,22965.28
2023-06-19T18:15:16.675Z,22957.13
2023-06-19T18:17:45.178Z,22920.53
2023-06-19T18:20:15.737Z,22867.63
2023-06-19T18:22:44.980Z,22826.97
2023-06-19T18:25:14.997Z,22818.81
2023-06-19T18:27:43.467Z,22792.38
2023-06-19T18:30:12.642Z,22770.00
2023-06-19T18:32:41.178Z,22696.78
2023-06-19T18:35:10.502Z,22711.03
2023-06-19T18:37:39.032Z,22668.31
2023-06-19T18:40:08.642Z,22637.81
2023-06-19T18:42:40.706Z,22645.94
2023-06-19T18:45:10.277Z,22589.00
2023-06-19T18:47:38.890Z,22603.22
2023-06-19T18:50:11.559Z,22572.72
2023-06-19T18:52:40.088Z,22558.50
2023-06-19T18:55:11.278Z,22560.53
2023-06-19T18:57:41.125Z,22550.34
2023-06-19T19:00:10.725Z,22519.84
2023-06-19T19:02:39.323Z,22503.56
2023-06-19T19:05:08.996Z,22477.13
2023-06-19T19:07:37.534Z,22485.28
2023-06-19T19:10:07.123Z,22471.03
2023-06-19T19:12:35.610Z,22440.53
2023-06-19T19:15:14.545Z,22432.41
2023-06-19T19:17:43.099Z,22428.31
2023-06-19T19:20:13.424Z,22399.84
2023-06-19T19:22:42.215Z,22351.03
2023-06-19T19:25:11.190Z,22355.13
2023-06-19T19:27:40.136Z,22336.81
2023-06-19T19:30:11.245Z,22288.00
2023-06-19T19:32:40.161Z,22292.06
2023-06-19T19:35:11.141Z,22233.09
2023-06-19T19:37:40.866Z,22235.13
2023-06-19T19:40:10.715Z,22200.56
2023-06-19T19:42:39.153Z,22184.28
2023-06-19T19:45:10.149Z,22208.69
2023-06-19T19:47:38.699Z,22163.94
2023-06-19T19:50:08.477Z,22137.50
2023-06-19T19:52:36.953Z,22127.34
2023-06-19T19:55:05.956Z,22092.78
2023-06-19T19:57:34.422Z,22131.41
2023-06-19T20:00:03.769Z,22129.38
2023-06-19T20:02:33.756Z,22086.69
2023-06-19T20:05:02.451Z,22084.66
2023-06-19T20:07:30.982Z,22043.97
2023-06-19T20:09:59.561Z,22058.22
2023-06-19T20:12:28.850Z,22056.19
2023-06-19T20:14:57.413Z,22031.78
2023-06-19T20:17:25.964Z,22033.81
2023-06-19T20:19:56.040Z,22029.75
2023-06-19T20:22:24.504Z,22025.66
2023-06-19T20:24:53.037Z,21989.06
2023-06-19T20:27:22.742Z,21991.09
2023-06-19T20:29:51.310Z,22019.56
2023-06-19T20:32:19.781Z,22039.91
2023-06-19T20:34:48.297Z,21999.25
2023-06-19T20:37:18.122Z,22029.75
2023-06-19T20:39:46.721Z,21993.13
2023-06-19T20:42:15.742Z,21952.47
2023-06-19T20:44:44.247Z,21962.63
2023-06-19T20:47:12.731Z,21968.72
2023-06-19T20:49:41.214Z,21948.41
2023-06-19T20:52:10.089Z,21956.53
2023-06-19T20:54:40.812Z,21948.41
2023-06-19T20:57:09.409Z,21926.03
2023-06-19T20:59:37.932Z,21873.16
2023-06-19T21:02:09.649Z,21873.16
2023-06-19T21:04:38.443Z,21887.41
2023-06-19T21:07:07.246Z,21907.72
2023-06-19T21:09:35.713Z,21846.72
2023-06-19T21:12:06.007Z,21871.13
2023-06-19T21:14:35.173Z,21840.63
2023-06-19T21:17:04.173Z,21826.41
2023-06-19T21:19:32.736Z,21820.28
2023-06-19T21:22:01.233Z,21818.25
2023-06-19T21:24:29.737Z,21848.75
2023-06-19T21:26:58.298Z,21838.59
2023-06-19T21:29:28.224Z,21842.66
2023-06-19T21:31:56.822Z,21860.97
2023-06-19T21:34:25.960Z,21903.66
2023-06-19T21:36:54.483Z,21895.53
2023-06-19T21:39:22.936Z,21913.84
2023-06-19T21:41:51.453Z,21830.47
2023-06-19T21:44:19.918Z,21850.78
2023-06-19T21:46:49.831Z,21836.56
2023-06-19T21:49:18.465Z,21891.47
2023-06-19T21:51:47.068Z,21867.06
2023-06-19T21:54:15.628Z,21879.25
2023-06-19T21:56:44.105Z,21887.41
2023-06-19T21:59:12.689Z,21865.03
2023-06-19T22:01:41.180Z,21885.38
2023-06-19T22:04:15.563Z,21885.38
2023-06-19T22:06:44.219Z,21840.63
2023-06-19T22:09:12.745Z,21860.97
2023-06-19T22:11:41.258Z,21846.72
2023-06-19T22:14:09.762Z,21856.91
2023-06-19T22:16:38.262Z,21895.53
2023-06-19T22:19:07.073Z,21822.31
2023-06-19T22:21:36.927Z,21924.00
2023-06-19T22:24:06.024Z,21887.41
2023-06-19T22:26:38.107Z,21842.66
2023-06-19T22:29:06.740Z,21887.41
2023-06-19T22:31:35.265Z,21865.03
2023-06-19T22:34:03.792Z,21852.81
2023-06-19T22:36:32.292Z,21812.16
2023-06-19T22:39:02.164Z,21806.06
2023-06-19T22:41:30.727Z,21771.50
2023-06-19T22:44:02.388Z,21781.66
2023-06-19T22:46:30.985Z,21808.09
2023-06-19T22:48:59.559Z,21777.59
2023-06-19T22:51:28.080Z,21789.78
2023-06-19T22:53:56.905Z,21816.22
2023-06-19T22:56:26.808Z,21808.09
2023-06-19T22:58:55.286Z,21804.03
2023-06-19T23:01:26.912Z,21747.09
2023-06-19T23:03:55.526Z,21777.59
2023-06-19T23:06:24.673Z,21761.31
2023-06-19T23:08:53.226Z,21767.44
2023-06-19T23:11:21.773Z,21749.13
2023-06-19T23:13:51.600Z,21736.94
2023-06-19T23:16:20.129Z,21765.38
2023-06-19T23:18:48.613Z,21765.38
2023-06-19T23:21:17.307Z,21761.31
2023-06-19T23:23:48.102Z,21795.88
2023-06-19T23:26:24.404Z,21743.03
2023-06-19T23:28:55.018Z,21741.00
2023-06-19T23:31:23.560Z,21745.06
2023-06-19T23:33:52.656Z,21720.66
2023-06-19T23:36:21.317Z,21751.16
2023-06-19T23:38:51.640Z,21757.25
2023-06-19T23:41:20.665Z,21734.88
2023-06-19T23:43:49.795Z,21745.06
2023-06-19T23:46:19.716Z,21732.84
2023-06-19T23:48:48.215Z,21726.75
2023-06-19T23:51:16.701Z,21736.94
2023-06-19T23:53:45.413Z,21728.78
2023-06-19T23:56:13.907Z,21690.16
2023-06-19T23:58:42.378Z,21738.97
